createdAt,value
2023-01-02T00:02:01.784Z,5.50
2023-01-02T00:07:05.041Z,5.40
2023-01-02T00:12:08.749Z,5.10
2023-01-02T00:17:13.375Z,4.90
2023-01-02T00:22:16.617Z,4.80
2023-01-02T00:27:19.870Z,4.70
2023-01-02T00:32:24.663Z,4.50
2023-01-02T00:37:27.904Z,4.40
2023-01-02T00:42:31.210Z,4.40
2023-01-02T00:47:35.783Z,4.20
2023-01-02T00:52:38.984Z,4.30
2023-01-02T00:57:42.198Z,4.30
2023-01-02T01:02:46.888Z,4.10
2023-01-02T01:07:50.162Z,4.10
2023-01-02T01:12:54.336Z,3.80
2023-01-02T01:17:58.959Z,3.70
2023-01-02T01:23:02.171Z,3.60
2023-01-02T01:28:05.615Z,3.60
2023-01-02T01:33:10.207Z,3.50
2023-01-02T01:38:13.448Z,3.70
2023-01-02T01:43:16.686Z,3.80
2023-01-02T01:48:26.752Z,3.70
2023-01-02T01:53:30.496Z,3.70
2023-01-02T01:58:37.378Z,3.70
2023-01-02T02:03:44.127Z,3.50
2023-01-02T02:08:54.584Z,3.50
2023-01-02T02:14:00.805Z,4.10
2023-01-02T02:19:20.658Z,4.10
2023-01-02T02:24:40.891Z,4.50
2023-01-02T02:30:16.322Z,4.40
2023-01-02T02:35:30.333Z,4.50
2023-01-02T02:40:45.640Z,4.70
2023-01-02T02:45:57.243Z,4.90
2023-01-02T02:51:05.307Z,4.90
2023-01-02T02:56:10.990Z,5.00
2023-01-02T03:01:17.888Z,4.80
2023-01-02T03:06:37.378Z,4.90
2023-01-02T03:11:51.299Z,4.80
2023-01-02T03:17:02.576Z,4.60
2023-01-02T03:22:12.394Z,4.50
2023-01-02T03:27:19.036Z,4.50
2023-01-02T03:32:28.279Z,4.50
2023-01-02T03:37:34.834Z,4.50
2023-01-02T03:42:44.220Z,4.50
2023-01-02T03:47:54.815Z,4.40
2023-01-02T03:52:58.127Z,4.30
2023-01-02T03:58:11.035Z,4.40
2023-01-02T04:03:19.363Z,4.40
2023-01-02T04:08:27.045Z,4.40
2023-01-02T04:13:35.611Z,4.30
2023-01-02T04:18:46.783Z,4.20
2023-01-02T04:23:55.044Z,4.20
2023-01-02T04:28:58.609Z,4.10
2023-01-02T04:34:04.999Z,4.20
2023-01-02T04:39:08.577Z,4.10
2023-01-02T04:44:11.822Z,4.10
2023-01-02T04:49:16.478Z,4.00
2023-01-02T04:54:19.756Z,4.00
2023-01-02T04:59:23.037Z,4.00
2023-01-02T05:04:27.641Z,4.10
2023-01-02T05:09:30.896Z,3.90
2023-01-02T05:14:34.152Z,4.00
2023-01-02T05:19:38.795Z,3.90
2023-01-02T05:24:42.043Z,3.70
2023-01-02T05:29:45.308Z,3.70
2023-01-02T05:34:49.959Z,3.90
2023-01-02T05:39:53.233Z,3.90
2023-01-02T05:44:56.472Z,4.00
2023-01-02T05:50:01.117Z,3.80
2023-01-02T05:55:04.703Z,3.80
2023-01-02T06:00:09.171Z,3.60
2023-01-02T06:05:17.612Z,3.70
2023-01-02T06:10:20.860Z,3.80
2023-01-02T06:15:24.094Z,3.80
2023-01-02T06:20:28.702Z,3.70
2023-01-02T06:25:34.066Z,3.70
2023-01-02T06:30:37.328Z,3.80
2023-01-02T06:35:41.920Z,3.80
2023-01-02T06:40:53.964Z,3.80
2023-01-02T06:45:59.611Z,3.70
2023-01-02T06:51:06.148Z,3.70
2023-01-02T06:56:11.147Z,3.60
2023-01-02T07:01:16.244Z,3.70
2023-01-02T07:06:22.543Z,1.80
2023-01-02T07:11:26.915Z,3.60
2023-01-02T07:16:30.280Z,3.50
2023-01-02T07:21:35.034Z,3.40
2023-01-02T07:26:38.267Z,3.40
2023-01-02T07:31:41.541Z,3.50
2023-01-02T07:36:46.225Z,3.40
2023-01-02T07:41:49.475Z,3.50
2023-01-02T07:46:54.639Z,3.70
2023-01-02T07:51:59.223Z,3.90
2023-01-02T07:57:02.506Z,4.10
2023-01-02T08:02:05.804Z,4.40
2023-01-02T08:07:11.158Z,4.80
2023-01-02T08:12:14.594Z,5.00
2023-01-02T08:17:18.039Z,5.00
2023-01-02T08:22:22.879Z,5.20
2023-01-02T08:27:26.339Z,5.00
2023-01-02T08:32:29.795Z,4.80
2023-01-02T08:37:35.128Z,4.70
2023-01-02T08:42:38.622Z,4.60
2023-01-02T08:47:42.503Z,4.70
2023-01-02T08:52:47.322Z,4.90
2023-01-02T08:57:50.874Z,4.80
2023-01-02T09:02:54.488Z,5.20
2023-01-02T09:07:59.367Z,6.20
2023-01-02T09:13:02.910Z,6.70
2023-01-02T09:18:06.595Z,6.90
2023-01-02T09:23:11.446Z,7.50
2023-01-02T09:28:15.004Z,7.80
2023-01-02T09:33:18.487Z,7.80
2023-01-02T09:38:23.329Z,7.80
2023-01-02T09:43:34.159Z,8.20
2023-01-02T09:48:38.450Z,8.30
2023-01-02T09:53:43.135Z,8.30
2023-01-02T09:58:51.869Z,8.60
2023-01-02T10:04:07.244Z,8.80
2023-01-02T10:09:18.544Z,9.20
2023-01-02T10:14:37.372Z,9.80
2023-01-02T10:19:46.449Z,10.10
2023-01-02T10:24:58.601Z,10.80
2023-01-02T10:30:20.564Z,11.30
2023-01-02T10:35:35.102Z,12.00
2023-01-02T10:40:42.069Z,12.10
2023-01-02T10:45:45.952Z,13.10
2023-01-02T10:50:54.184Z,13.80
2023-01-02T10:56:03.280Z,14.70
2023-01-02T11:01:08.511Z,14.40
2023-01-02T11:06:35.161Z,14.90
2023-01-02T11:11:51.051Z,15.10
2023-01-02T11:16:55.505Z,13.20
2023-01-02T11:21:58.989Z,13.20
2023-01-02T11:27:04.552Z,13.20
2023-01-02T11:32:07.941Z,13.40
2023-01-02T11:37:18.177Z,12.30
2023-01-02T11:42:45.915Z,11.80
2023-01-02T11:47:51.247Z,11.40
2023-01-02T11:52:59.014Z,11.20
2023-01-02T11:58:10.978Z,11.10
2023-01-02T12:03:19.246Z,11.30
2023-01-02T12:08:31.047Z,11.30
2023-01-02T12:13:56.918Z,11.10
2023-01-02T12:19:20.542Z,11.00
2023-01-02T12:24:54.145Z,10.90
2023-01-02T12:30:14.894Z,10.80
2023-01-02T12:35:33.345Z,10.90
2023-01-02T12:40:48.103Z,11.00
2023-01-02T12:46:00.265Z,10.90
2023-01-02T12:51:13.304Z,10.90
2023-01-02T12:56:22.819Z,10.90
2023-01-02T13:01:35.169Z,10.90
2023-01-02T13:06:47.677Z,10.90
2023-01-02T13:11:56.609Z,11.20
2023-01-02T13:17:09.916Z,10.80
2023-01-02T13:22:22.141Z,10.60
2023-01-02T13:27:25.895Z,10.70
2023-01-02T13:32:32.445Z,10.40
2023-01-02T13:37:36.239Z,10.20
2023-01-02T13:42:57.398Z,10.20
2023-01-02T13:48:04.840Z,10.10
2023-01-02T13:53:28.267Z,10.00
2023-01-02T13:59:01.974Z,9.90
2023-01-02T14:04:44.068Z,9.80
2023-01-02T14:10:12.956Z,10.20
2023-01-02T14:15:19.314Z,9.80
2023-01-02T14:20:25.668Z,9.60
2023-01-02T14:25:32.187Z,9.60
2023-01-02T14:30:39.611Z,9.50
2023-01-02T14:35:51.655Z,9.80
2023-01-02T14:41:18.480Z,9.70
2023-01-02T14:46:25.092Z,9.40
2023-01-02T14:51:34.049Z,9.30
2023-01-02T14:56:42.447Z,8.90
2023-01-02T15:01:50.164Z,8.80
2023-01-02T15:07:07.661Z,8.60
2023-01-02T15:12:42.084Z,8.30
2023-01-02T15:17:46.930Z,8.30
2023-01-02T15:22:52.676Z,8.20
2023-01-02T15:27:57.296Z,8.00
2023-01-02T15:33:01.215Z,8.00
2023-01-02T15:38:05.910Z,7.90
2023-01-02T15:43:32.970Z,7.70
2023-01-02T15:48:36.624Z,7.60
2023-01-02T15:53:42.909Z,7.50
2023-01-02T15:58:51.219Z,7.20
2023-01-02T16:04:01.887Z,7.00
2023-01-02T16:09:09.740Z,6.90
2023-01-02T16:14:22.334Z,6.70
2023-01-02T16:19:32.411Z,9.00
2023-01-02T16:24:40.899Z,6.60
2023-01-02T16:29:45.703Z,6.50
2023-01-02T16:35:00.357Z,6.40
2023-01-02T16:41:00.298Z,6.30
2023-01-02T16:46:11.340Z,6.10
2023-01-02T16:51:16.684Z,6.20
2023-01-02T16:56:19.961Z,6.20
2023-01-02T17:01:25.839Z,6.10
2023-01-02T17:06:29.134Z,6.00
2023-01-02T17:11:32.675Z,6.20
2023-01-02T17:16:37.631Z,6.30
2023-01-02T17:21:41.436Z,6.30
2023-01-02T17:26:45.032Z,6.20
2023-01-02T17:31:49.664Z,6.30
2023-01-02T17:36:53.138Z,6.50
2023-01-02T17:41:56.376Z,6.50
2023-01-02T17:47:30.553Z,6.50
2023-01-02T17:52:25.002Z,6.60
2023-01-02T17:57:28.521Z,6.80
2023-01-02T18:02:34.010Z,6.90
2023-01-02T18:07:37.428Z,6.90
2023-01-02T18:12:42.885Z,6.80
2023-01-02T18:17:47.794Z,6.80
2023-01-02T18:22:51.358Z,6.80
2023-01-02T18:27:59.210Z,7.00
2023-01-02T18:33:12.252Z,7.00
2023-01-02T18:38:20.530Z,6.90
2023-01-02T18:43:28.129Z,10.70
2023-01-02T18:48:32.702Z,6.80
2023-01-02T18:53:40.276Z,6.80
2023-01-02T18:58:47.236Z,6.70
2023-01-02T19:03:56.723Z,6.70
2023-01-02T19:09:10.245Z,6.40
2023-01-02T19:14:16.992Z,6.00
2023-01-02T19:19:25.889Z,6.00
2023-01-02T19:24:36.203Z,6.00
2023-01-02T19:29:43.185Z,6.10
2023-01-02T19:34:50.497Z,6.10
2023-01-02T19:39:56.722Z,6.10
2023-01-02T19:45:01.964Z,6.30
2023-01-02T19:50:09.978Z,6.20
2023-01-02T19:55:14.094Z,6.40
2023-01-02T20:00:19.623Z,6.20
2023-01-02T20:05:24.686Z,3.70
2023-01-02T20:10:27.963Z,6.20
2023-01-02T20:15:31.335Z,6.10
2023-01-02T20:20:35.962Z,6.40
2023-01-02T20:25:40.109Z,6.20
2023-01-02T20:30:43.690Z,6.20
2023-01-02T20:35:48.553Z,6.30
2023-01-02T20:40:52.498Z,6.30
2023-01-02T20:45:56.909Z,6.20
2023-01-02T20:51:01.918Z,6.10
2023-01-02T20:56:05.777Z,6.20
2023-01-02T21:01:09.331Z,6.30
2023-01-02T21:06:14.243Z,6.20
2023-01-02T21:11:17.648Z,6.30
2023-01-02T21:16:21.075Z,6.20
2023-01-02T21:21:25.869Z,6.10
2023-01-02T21:26:29.292Z,6.00
2023-01-02T21:31:32.841Z,6.00
2023-01-02T21:36:37.727Z,6.10
2023-01-02T21:41:58.425Z,6.00
2023-01-02T21:47:03.444Z,5.90
2023-01-02T21:52:08.540Z,6.00
2023-01-02T21:57:11.849Z,6.00
2023-01-02T22:02:15.165Z,6.10
2023-01-02T22:07:39.325Z,6.00
2023-01-02T22:12:43.310Z,6.00
2023-01-02T22:17:46.508Z,6.20
2023-01-02T22:22:51.214Z,6.30
2023-01-02T22:27:54.490Z,6.30
2023-01-02T22:32:57.722Z,6.40
2023-01-02T22:38:02.333Z,6.20
2023-01-02T22:43:06.310Z,6.10
2023-01-02T22:48:18.067Z,6.00
2023-01-02T22:53:25.639Z,6.10
2023-01-02T22:58:29.255Z,6.10
2023-01-02T23:03:38.220Z,6.20
2023-01-02T23:08:43.016Z,6.30
2023-01-02T23:13:50.181Z,6.10
2023-01-02T23:19:13.894Z,6.10
2023-01-02T23:24:21.281Z,6.10
2023-01-02T23:29:26.143Z,5.90
2023-01-02T23:34:30.479Z,5.90
2023-01-02T23:39:36.081Z,5.80
2023-01-02T23:44:39.581Z,5.80
2023-01-02T23:49:42.833Z,5.80
2023-01-02T23:54:47.431Z,5.70
2023-01-02T23:59:50.654Z,5.90
